Flight Track Log - Related Links

Times and Time Zones

All times are in EST time to prevent confusion due to time zone crossing. See the N43812 flight status page for this flight to view local times or setup timezone preferences in your user account.


Time Position Orientation Groundspeed Altitude Reporting Facility
EST Latitude Longitude Course Direction KTS MPH feet Rate Location/Type
Tue 10:14:15 AM 40.7483 -79.0450 69° East 151 174 9,500  Level Cleveland Center
Tue 10:15:17 AM 40.7497 -78.9900 88° East 151 174 9,500  Level Cleveland Center
Tue 10:16:18 AM 40.7542 -78.9247 85° East 151 174 9,500  Level Cleveland Center
Tue 10:17:20 AM 40.7567 -78.8700 87° East 150 173 9,500  Level Cleveland Center
Tue 10:18:22 AM 40.7589 -78.8144 87° East 152 175 9,500  Level Cleveland Center
Tue 10:19:00 AM 40.7033 -78.7198 69° East  Level FlightAware Approximate
Tue 10:19:24 AM 40.7614 -78.7603 86° East 150 173 9,500  Level Cleveland Center
Tue 10:20:26 AM 40.7642 -78.7042 86° East 153 176 9,500  Level Cleveland Center
Tue 10:21:28 AM 40.7669 -78.6500 86° East 150 173 9,500  Level Cleveland Center
Tue 10:22:29 AM 40.7692 -78.5833 87° East 152 175 9,500  Level Cleveland Center
Tue 10:23:31 AM 40.7731 -78.5286 85° East 151 174 9,500  Level Cleveland Center
Tue 10:24:33 AM 40.7744 -78.4750 88° East 148 170 9,500  Level Cleveland Center
Tue 10:25:35 AM 40.7764 -78.4194 87° East 152 175 9,500  Level Cleveland Center
Tue 10:26:37 AM 40.7789 -78.3656 86° East 149 171 9,500  Level Cleveland Center
Tue 10:27:39 AM 40.7811 -78.2992 87° East 151 174 9,500  Level Cleveland Center
Tue 10:28:41 AM 40.7836 -78.2439 87° East 152 175 9,500  Level Cleveland Center
Tue 10:29:43 AM 40.7856 -78.1892 87° East 151 174 9,500  Level Cleveland Center
Tue 10:30:45 AM 40.7883 -78.1339 86° East 151 174 9,500  Level Cleveland Center
Tue 10:31:47 AM 40.7897 -78.0778 88° East 153 176 9,500  Level Cleveland Center
Tue 10:32:49 AM 40.7914 -78.0239 88° East 148 170 9,500  Level Cleveland Center
Tue 10:33:51 AM 40.7944 -77.9569 87° East 154 177 9,500  Level Cleveland Center
Tue 10:35:42 AM 40.7972 -77.8550 88° East 148 170 9,500  Level New York Center
Tue 10:36:43 AM 40.8006 -77.8003 85° East 148 170 9,500  Level New York Center
Tue 10:37:42 AM 40.8019 -77.7428 88° East 148 170 9,500  Level New York Center
Tue 10:38:42 AM 40.8050 -77.6883 86° East 148 170 9,500  Level New York Center
Tue 10:39:42 AM 40.8064 -77.6308 88° East 148 170 9,500  Level New York Center
Tue 10:40:42 AM 40.8094 -77.5764 86° East 153 176 9,500  Level New York Center
Tue 10:41:42 AM 40.8103 -77.5242 89° East 153 176 9,500  Level New York Center
Tue 10:42:42 AM 40.8136 -77.4697 85° East 153 176 9,500  Level New York Center
Tue 10:43:42 AM 40.8144 -77.4150 89° East 153 176 9,500  Level New York Center
Tue 10:44:42 AM 40.8156 -77.3603 88° East 153 176 9,500 50 Level New York Center
Tue 10:45:42 AM 40.8167 -77.3000 89° East 153 176 9,600 50 Climbing New York Center
Tue 10:46:42 AM 40.8197 -77.2456 86° East 153 176 9,600  Level New York Center
Tue 10:47:42 AM 40.8208 -77.1878 89° East 153 176 9,600  Level New York Center
Tue 10:48:42 AM 40.8236 -77.1333 86° East 158 182 9,600  Level New York Center
Tue 10:49:42 AM 40.8225 -77.0783 92° East 158 182 9,600  Level New York Center
Tue 10:50:42 AM 40.8256 -77.0211 86° East 158 182 9,600  Level New York Center
Tue 10:51:42 AM 40.8264 -76.9661 89° East 158 182 9,600  Level New York Center
Tue 10:52:42 AM 40.8272 -76.9086 89° East 158 182 9,600  Level New York Center
Tue 10:53:42 AM 40.8297 -76.8594 86° East 158 182 9,600  Level New York Center
Tue 10:54:42 AM 40.8308 -76.7992 89° East 151 174 9,600  Level New York Center
Tue 10:55:42 AM 40.8314 -76.7444 89° East 151 174 9,600  Level New York Center
Tue 10:56:42 AM 40.8361 -76.6956 83° East 146 168 9,600  Level New York Center
Tue 10:57:42 AM 40.8372 -76.6297 89° East 146 168 9,600  Level New York Center
Tue 10:58:42 AM 40.8375 -76.5803 90° East 152 175 9,600  Level New York Center
Tue 10:59:42 AM 40.8381 -76.5256 89° East 152 175 9,600  Level New York Center
Tue 11:00:42 AM 40.8411 -76.4628 86° East 152 175 9,600  Level New York Center
Tue 11:01:42 AM 40.8417 -76.4081 89° East 152 175 9,600  Level New York Center
Tue 11:02:42 AM 40.8425 -76.3503 89° East 152 175 9,600  Level New York Center
Tue 11:03:42 AM 40.8444 -76.3039 87° East 152 175 9,600 -50 Level New York Center
Tue 11:04:42 AM 40.8472 -76.2464 86° East 152 175 9,500 -50 Descending New York Center
Tue 11:05:42 AM 40.8481 -76.1836 89° East 158 182 9,500  Level New York Center
Tue 11:06:42 AM 40.8483 -76.1286 90° East 158 182 9,500  Level New York Center
Tue 11:07:42 AM 40.8489 -76.0711 89° East 158 182 9,500  Level New York Center
Tue 11:08:42 AM 40.8533 -76.0219 83° East 158 182 9,500  Level New York Center
Tue 11:09:42 AM 40.8539 -75.9589 89° East 158 182 9,500  Level New York Center
Tue 11:10:42 AM 40.8544 -75.9014 89° East 163 188 9,500  Level New York Center
Tue 11:11:42 AM 40.8567 -75.8494 87° East 158 182 9,500  Level New York Center
Tue 11:12:42 AM 40.8572 -75.7892 89° East 158 182 9,500  Level New York Center
Tue 11:13:42 AM 40.8575 -75.7314 90° East 158 182 9,500  Level New York Center
Tue 11:14:42 AM 40.8597 -75.6739 87° East 158 182 9,500 -50 Level New York Center
Tue 11:15:42 AM 40.8600 -75.6219 90° East 158 182 9,400 -600 Descending New York Center
Tue 11:16:42 AM 40.8622 -75.5672 87° East 158 182 8,300 -1,050 Descending New York Center
Tue 11:17:42 AM 40.8625 -75.5042 90° East 158 182 7,300 -900 Descending New York Center
Tue 11:18:42 AM 40.8644 -75.4603 87° East 158 182 6,500 -793 Descending New York Center
Tue 11:19:43 AM 40.8625 -75.4025 93° East 152 175 5,700 -850 Descending New York Center
Tue 11:20:42 AM 40.8647 -75.3450 87° East 139 160 4,800 -908 Descending New York Center
Tue 11:21:42 AM 40.8644 -75.2983 90° East 139 160 3,900 -694 Descending New York Center
Tue 11:22:43 AM 40.8642 -75.2489 90° East 139 160 3,400 -150 Descending New York Center
Tue 11:23:42 AM 40.8658 -75.2081 87° East 139 160 3,600  Climbing New York Center
Tue 11:24:42 AM 40.8675 -75.1586 87° East 124 143 3,400 -200 Descending New York Center
Tue 11:25:42 AM 40.8672 -75.1119 90° East 124 143 3,200 -150 Descending New York Center
Tue 11:26:42 AM 40.8689 -75.0656 87° East 124 143 3,100 -50 Descending New York Center
Tue 11:27:42 AM 40.8706 -75.0217 87° East 124 143 3,100  Level New York Center
Tue 11:28:42 AM 40.8700 -74.9778 91° East 124 143 3,100  Level New York Center
Tue 11:29:42 AM 40.8697 -74.9256 90° East 124 143 3,100 -50 Level New York Center
Tue 11:30:42 AM 40.8714 -74.8764 87° East 124 143 3,000 -100 Descending New York Center
Tue 11:32:00 AM 40.8708 -74.8077 91° East  Level FlightAware Approximate
Tue 11:39:00 AM 40.8669 -74.4382 91° East  Level FlightAware Approximate
Tue 11:40:00 AM 40.8667 -74.3854 90° East  Level FlightAware Approximate
Tue 11:41:00 AM 40.8667 -74.3326 90° East  Level FlightAware Approximate
Tue 11:42:00 AM 40.8667 -74.2797 90° East  Level FlightAware Approximate
Tue 11:43:00 AM 40.8667 -74.2667 90° East  Level FlightAware Approximate
Tue 11:44:00 AM 40.8752 -74.2814 90° East  Level Estimated
Tue 11:45:00 AM 40.8752 -74.2814 90° East  Level Estimated
Tue 11:46:00 AM 40.8752 -74.2814 90° East  Level Estimated
Tue 11:47:00 AM 40.8752 -74.2814 90° East  Level Estimated
Tue 11:48:00 AM 40.8752 -74.2814 90° East  Level Estimated
Tue 11:49:00 AM 40.8752 -74.2814 90° East  Level Estimated
Tue 11:50:00 AM 40.8752 -74.2814 90° East  Level Estimated

Login

Don't have an account? Register now (free) for customized features, flight alerts, and more!